createdAt,value
2018-09-26T00:02:22.345Z,5.50
2018-09-26T00:04:52.454Z,5.50
2018-09-26T00:07:20.962Z,5.50
2018-09-26T00:09:49.464Z,5.50
2018-09-26T00:12:17.999Z,5.50
2018-09-26T00:14:46.493Z,5.40
2018-09-26T00:17:15.001Z,5.30
2018-09-26T00:19:43.493Z,5.20
2018-09-26T00:22:12.022Z,5.10
2018-09-26T00:24:40.530Z,5.10
2018-09-26T00:27:09.096Z,5.20
2018-09-26T00:29:37.585Z,5.20
2018-09-26T00:32:06.258Z,5.30
2018-09-26T00:34:34.738Z,5.30
2018-09-26T00:37:03.246Z,5.30
2018-09-26T00:39:31.738Z,5.40
2018-09-26T00:42:00.258Z,5.40
2018-09-26T00:44:28.775Z,5.40
2018-09-26T00:46:57.255Z,5.30
2018-09-26T00:49:25.894Z,5.30
2018-09-26T00:51:54.402Z,5.30
2018-09-26T00:54:22.940Z,5.30
2018-09-26T00:56:51.415Z,5.20
2018-09-26T00:59:19.967Z,5.20
2018-09-26T01:01:48.465Z,5.10
2018-09-26T01:04:16.960Z,5.20
2018-09-26T01:06:45.431Z,5.20
2018-09-26T01:09:13.948Z,5.20
2018-09-26T01:11:42.450Z,5.20
2018-09-26T01:14:10.945Z,5.20
2018-09-26T01:16:39.450Z,5.20
2018-09-26T01:19:07.954Z,5.20
2018-09-26T01:21:36.493Z,5.10
2018-09-26T01:24:04.994Z,5.10
2018-09-26T01:26:33.480Z,5.00
2018-09-26T01:29:01.962Z,5.10
2018-09-26T01:31:30.439Z,5.10
2018-09-26T01:33:58.939Z,5.10
2018-09-26T01:36:27.462Z,5.10
2018-09-26T01:38:55.966Z,5.10
2018-09-26T01:41:24.503Z,5.10
2018-09-26T01:43:53.014Z,5.10
2018-09-26T01:46:21.499Z,5.00
2018-09-26T01:48:49.989Z,4.90
2018-09-26T01:51:18.485Z,4.90
2018-09-26T01:53:47.004Z,4.80
2018-09-26T01:56:15.491Z,4.80
2018-09-26T01:58:44.017Z,4.60
2018-09-26T02:01:12.482Z,4.40
2018-09-26T02:03:41.022Z,4.40
2018-09-26T02:06:09.529Z,4.30
2018-09-26T02:08:38.080Z,4.20
2018-09-26T02:11:06.601Z,4.10
2018-09-26T02:13:35.043Z,4.00
2018-09-26T02:16:03.623Z,4.00
2018-09-26T02:18:32.091Z,3.90
2018-09-26T02:21:00.607Z,4.00
2018-09-26T02:23:29.098Z,4.00
2018-09-26T02:25:57.551Z,4.00
2018-09-26T02:28:25.991Z,4.00
2018-09-26T02:30:54.447Z,4.00
2018-09-26T02:33:22.939Z,3.90
2018-09-26T02:35:51.395Z,4.00
2018-09-26T02:38:19.891Z,3.90
2018-09-26T02:40:48.362Z,4.00
2018-09-26T02:43:17.182Z,4.00
2018-09-26T02:45:45.682Z,4.00
2018-09-26T02:48:19.504Z,4.10
2018-09-26T02:50:48.019Z,4.10
2018-09-26T02:53:16.484Z,4.20
2018-09-26T02:55:45.004Z,4.20
2018-09-26T02:58:13.462Z,4.20
2018-09-26T03:00:41.981Z,4.10
2018-09-26T03:03:10.434Z,4.10
2018-09-26T03:05:38.955Z,4.20
2018-09-26T03:08:07.451Z,4.20
2018-09-26T03:10:35.944Z,4.20
2018-09-26T03:13:04.430Z,4.20
2018-09-26T03:15:32.947Z,4.20
2018-09-26T03:18:01.487Z,4.20
2018-09-26T03:20:29.984Z,4.30
2018-09-26T03:22:58.529Z,4.30
2018-09-26T03:25:27.038Z,4.40
2018-09-26T03:27:55.535Z,4.30
2018-09-26T03:30:24.031Z,4.20
2018-09-26T03:32:52.499Z,4.10
2018-09-26T03:35:20.991Z,4.10
2018-09-26T03:37:50.291Z,4.10
2018-09-26T03:40:18.804Z,4.00
2018-09-26T03:42:47.310Z,4.00
2018-09-26T03:45:15.791Z,4.00
2018-09-26T03:47:44.282Z,3.90
2018-09-26T03:50:12.784Z,3.90
2018-09-26T03:52:41.243Z,3.80
2018-09-26T03:55:09.748Z,3.80
2018-09-26T03:57:38.212Z,3.80
2018-09-26T04:00:06.757Z,3.90
2018-09-26T04:02:35.279Z,4.00
2018-09-26T04:05:03.901Z,4.00
2018-09-26T04:07:32.345Z,3.90
2018-09-26T04:10:00.808Z,3.90
2018-09-26T04:12:29.299Z,3.90
2018-09-26T04:14:57.779Z,3.90
2018-09-26T04:17:26.334Z,4.00
2018-09-26T04:19:54.830Z,3.90
2018-09-26T04:22:23.323Z,3.80
2018-09-26T04:24:51.813Z,3.70
2018-09-26T04:27:20.416Z,3.60
2018-09-26T04:29:48.791Z,3.60
2018-09-26T04:32:17.303Z,3.60
2018-09-26T04:34:45.851Z,3.60
2018-09-26T04:37:14.363Z,3.60
2018-09-26T04:39:42.843Z,3.50
2018-09-26T04:42:11.374Z,3.40
2018-09-26T04:44:39.886Z,3.50
2018-09-26T04:47:08.394Z,3.40
2018-09-26T04:49:36.855Z,3.50
2018-09-26T04:52:05.423Z,3.50
2018-09-26T04:54:33.942Z,3.60
2018-09-26T04:57:02.458Z,3.50
2018-09-26T04:59:30.958Z,3.50
2018-09-26T05:01:59.509Z,3.40
2018-09-26T05:04:28.019Z,3.40
2018-09-26T05:06:56.542Z,3.40
2018-09-26T05:09:25.043Z,3.50
2018-09-26T05:11:53.548Z,3.50
2018-09-26T05:14:22.062Z,3.60
2018-09-26T05:16:50.591Z,3.50
2018-09-26T05:19:19.066Z,3.50
2018-09-26T05:21:47.627Z,3.50
2018-09-26T05:24:16.116Z,3.30
2018-09-26T05:26:44.623Z,3.20
2018-09-26T05:29:13.098Z,3.20
2018-09-26T05:31:41.610Z,3.20
2018-09-26T05:34:10.137Z,3.30
2018-09-26T05:36:38.639Z,3.30
2018-09-26T05:39:11.010Z,3.30
2018-09-26T05:41:39.645Z,3.20
2018-09-26T05:44:08.219Z,3.10
2018-09-26T05:46:36.698Z,3.10
2018-09-26T05:49:05.259Z,3.10
2018-09-26T05:51:33.736Z,3.20
2018-09-26T05:54:02.251Z,3.20
2018-09-26T05:56:30.751Z,3.30
2018-09-26T05:58:59.229Z,3.40
2018-09-26T06:01:27.758Z,3.50
2018-09-26T06:03:56.328Z,3.50
2018-09-26T06:06:24.826Z,3.60
2018-09-26T06:08:53.318Z,3.70
2018-09-26T06:11:21.828Z,3.80
2018-09-26T06:13:50.306Z,4.00
2018-09-26T06:16:18.814Z,4.10
2018-09-26T06:18:47.314Z,4.20
2018-09-26T06:21:15.807Z,4.20
2018-09-26T06:23:44.290Z,4.30
2018-09-26T06:26:12.791Z,4.40
2018-09-26T06:28:41.283Z,4.40
2018-09-26T06:31:09.750Z,4.40
2018-09-26T06:33:38.258Z,4.40
2018-09-26T06:36:06.902Z,4.40
2018-09-26T06:38:35.390Z,4.60
2018-09-26T06:41:03.906Z,4.70
2018-09-26T06:43:32.386Z,4.90
2018-09-26T06:46:00.851Z,5.00
2018-09-26T06:48:29.471Z,5.30
2018-09-26T06:50:57.934Z,5.50
2018-09-26T06:53:26.442Z,5.50
2018-09-26T06:55:54.894Z,5.60
2018-09-26T06:58:23.431Z,5.90
2018-09-26T07:00:51.874Z,6.10
2018-09-26T07:03:20.387Z,6.20
2018-09-26T07:05:48.889Z,6.40
2018-09-26T07:08:17.414Z,6.50
2018-09-26T07:10:45.958Z,6.60
2018-09-26T07:13:14.459Z,6.70
2018-09-26T07:15:42.986Z,6.90
2018-09-26T07:18:11.522Z,7.00
2018-09-26T07:20:40.044Z,7.20
2018-09-26T07:23:08.606Z,7.30
2018-09-26T07:25:37.124Z,7.20
2018-09-26T07:28:05.839Z,7.40
2018-09-26T07:30:34.364Z,7.60
2018-09-26T07:33:03.409Z,7.70
2018-09-26T07:35:31.881Z,7.90
2018-09-26T07:38:00.298Z,8.10
2018-09-26T07:40:28.742Z,8.30
2018-09-26T07:42:57.154Z,8.50
2018-09-26T07:45:25.640Z,8.80
2018-09-26T07:47:54.051Z,8.80
2018-09-26T07:50:22.518Z,9.10
2018-09-26T07:52:50.956Z,9.40
2018-09-26T07:55:19.443Z,9.70
2018-09-26T07:57:47.874Z,9.90
2018-09-26T08:00:16.338Z,10.10
2018-09-26T08:02:44.770Z,10.30
2018-09-26T08:05:13.278Z,10.30
2018-09-26T08:07:41.737Z,10.30
2018-09-26T08:10:10.218Z,10.60
2018-09-26T08:12:38.642Z,10.90
2018-09-26T08:15:07.142Z,11.20
2018-09-26T08:17:35.614Z,11.40
2018-09-26T08:20:04.102Z,11.70
2018-09-26T08:22:32.539Z,12.00
2018-09-26T08:25:01.082Z,12.10
2018-09-26T08:27:29.509Z,12.30
2018-09-26T08:29:57.960Z,12.50
2018-09-26T08:32:26.373Z,12.60
2018-09-26T08:34:54.825Z,12.80
2018-09-26T08:37:23.238Z,12.90
2018-09-26T08:39:51.694Z,12.90
2018-09-26T08:42:20.117Z,12.50
2018-09-26T08:44:48.569Z,12.80
2018-09-26T08:47:17.041Z,13.30
2018-09-26T08:49:45.818Z,13.40
2018-09-26T08:52:14.225Z,13.80
2018-09-26T08:54:42.657Z,13.80
2018-09-26T08:57:11.081Z,14.00
2018-09-26T08:59:39.550Z,14.20
2018-09-26T09:02:07.960Z,14.30
2018-09-26T09:04:36.410Z,14.30
2018-09-26T09:07:04.830Z,14.20
2018-09-26T09:09:33.262Z,13.90
2018-09-26T09:12:01.686Z,13.90
2018-09-26T09:14:30.229Z,13.60
2018-09-26T09:16:58.570Z,13.60
2018-09-26T09:19:27.061Z,13.60
2018-09-26T09:21:55.493Z,14.00
2018-09-26T09:24:23.936Z,14.30
2018-09-26T09:26:52.365Z,14.40
2018-09-26T09:29:20.808Z,14.70
2018-09-26T09:31:49.215Z,14.70
2018-09-26T09:34:17.682Z,15.10
2018-09-26T09:36:46.109Z,15.40
2018-09-26T09:39:14.530Z,14.70
2018-09-26T09:41:43.019Z,14.60
2018-09-26T09:44:11.613Z,15.10
2018-09-26T09:46:39.984Z,14.90
2018-09-26T09:49:08.389Z,14.70
2018-09-26T09:51:36.895Z,14.70
2018-09-26T09:54:05.321Z,15.60
2018-09-26T09:56:33.749Z,16.70
2018-09-26T09:59:02.157Z,17.00
2018-09-26T10:01:30.590Z,18.00
2018-09-26T10:04:00.204Z,18.20
2018-09-26T10:06:29.312Z,18.10
2018-09-26T10:08:58.178Z,18.30
2018-09-26T10:11:26.896Z,17.50
2018-09-26T10:13:55.297Z,18.10
2018-09-26T10:16:23.752Z,18.20
2018-09-26T10:18:52.150Z,16.70
2018-09-26T10:21:20.574Z,18.80
2018-09-26T10:23:48.989Z,20.20
2018-09-26T10:26:17.496Z,21.60
2018-09-26T10:28:45.859Z,21.50
2018-09-26T10:31:14.306Z,21.80
2018-09-26T10:33:42.706Z,22.00
2018-09-26T10:36:11.158Z,22.80
2018-09-26T10:38:39.576Z,23.20
2018-09-26T10:41:08.014Z,22.60
2018-09-26T10:43:36.437Z,21.70
2018-09-26T10:46:04.895Z,20.50
2018-09-26T10:48:33.294Z,20.60
2018-09-26T10:51:01.735Z,21.80
2018-09-26T10:53:30.158Z,22.70
2018-09-26T10:55:58.642Z,23.00
2018-09-26T10:58:27.097Z,22.30
2018-09-26T11:00:55.521Z,22.20
2018-09-26T11:03:23.929Z,23.30
2018-09-26T11:05:52.366Z,22.50
2018-09-26T11:08:20.817Z,23.70
2018-09-26T11:10:49.223Z,24.60
2018-09-26T11:13:17.649Z,24.10
2018-09-26T11:15:46.055Z,23.80
2018-09-26T11:18:14.525Z,23.50
2018-09-26T11:20:42.942Z,23.60
2018-09-26T11:23:11.369Z,22.10
2018-09-26T11:25:39.786Z,20.80
2018-09-26T11:28:08.222Z,19.50
2018-09-26T11:30:36.633Z,19.50
2018-09-26T11:33:05.085Z,20.50
2018-09-26T11:35:33.486Z,21.80
2018-09-26T11:38:01.913Z,21.50
2018-09-26T11:40:30.326Z,20.00
2018-09-26T11:42:58.758Z,20.10
2018-09-26T11:45:27.246Z,19.90
2018-09-26T11:47:55.682Z,20.10
2018-09-26T11:50:24.144Z,20.40
2018-09-26T11:52:53.178Z,21.60
2018-09-26T11:55:21.652Z,22.40
2018-09-26T11:57:50.128Z,23.10
2018-09-26T12:00:18.661Z,23.50
2018-09-26T12:02:47.222Z,22.20
2018-09-26T12:05:15.605Z,20.50
2018-09-26T12:07:44.078Z,19.80
2018-09-26T12:10:13.712Z,21.20
2018-09-26T12:12:42.158Z,22.70
2018-09-26T12:15:10.579Z,23.40
2018-09-26T12:17:39.042Z,23.30
2018-09-26T12:20:07.601Z,22.50
2018-09-26T12:22:36.414Z,20.80
2018-09-26T12:25:04.889Z,19.50
2018-09-26T12:27:33.334Z,20.10
2018-09-26T12:30:01.733Z,21.00
2018-09-26T12:32:30.169Z,20.70
2018-09-26T12:34:58.710Z,20.60
2018-09-26T12:37:27.074Z,20.80
2018-09-26T12:39:55.501Z,21.10
2018-09-26T12:42:24.024Z,21.30
2018-09-26T12:44:52.362Z,21.70
2018-09-26T12:47:20.889Z,22.00
2018-09-26T12:49:49.266Z,23.00
2018-09-26T12:52:17.711Z,23.40
2018-09-26T12:54:46.123Z,22.70
2018-09-26T12:57:14.570Z,22.80
2018-09-26T12:59:42.999Z,22.00
2018-09-26T13:02:11.410Z,22.20
2018-09-26T13:04:39.838Z,22.00
2018-09-26T13:07:08.250Z,22.10
2018-09-26T13:09:36.683Z,21.90
2018-09-26T13:12:05.131Z,23.10
2018-09-26T13:14:33.572Z,23.10
2018-09-26T13:17:02.403Z,23.30
2018-09-26T13:19:30.853Z,23.30
2018-09-26T13:21:59.294Z,25.30
2018-09-26T13:24:27.724Z,24.30
2018-09-26T13:26:56.173Z,24.70
2018-09-26T13:29:24.611Z,21.70
2018-09-26T13:31:53.037Z,20.70
2018-09-26T13:34:21.499Z,20.70
2018-09-26T13:36:49.919Z,21.20
2018-09-26T13:39:18.381Z,21.70
2018-09-26T13:41:46.802Z,21.40
2018-09-26T13:44:15.272Z,21.40
2018-09-26T13:46:43.745Z,21.40
2018-09-26T13:49:12.133Z,21.20
2018-09-26T13:51:40.532Z,20.90
2018-09-26T13:54:08.669Z,20.60
2018-09-26T13:56:37.026Z,20.20
2018-09-26T13:59:05.466Z,20.00
2018-09-26T14:01:33.997Z,19.70
2018-09-26T14:04:02.406Z,19.90
2018-09-26T14:06:30.821Z,20.40
2018-09-26T14:08:59.297Z,20.90
2018-09-26T14:11:27.714Z,21.20
2018-09-26T14:13:56.121Z,21.90
2018-09-26T14:16:24.594Z,22.40
2018-09-26T14:18:53.008Z,22.70
2018-09-26T14:21:32.575Z,22.70
2018-09-26T14:24:01.082Z,22.80
2018-09-26T14:26:29.649Z,23.00
2018-09-26T14:28:58.162Z,23.10
2018-09-26T14:31:26.978Z,23.20
2018-09-26T14:33:56.048Z,22.70
2018-09-26T14:36:24.542Z,22.80
2018-09-26T14:38:53.186Z,22.70
2018-09-26T14:41:21.734Z,22.60
2018-09-26T14:43:50.178Z,21.50
2018-09-26T14:46:18.750Z,21.20
2018-09-26T14:48:47.254Z,21.50
2018-09-26T14:51:15.859Z,21.30
2018-09-26T14:53:44.382Z,21.10
2018-09-26T14:56:13.005Z,21.20
2018-09-26T14:58:41.487Z,22.00
2018-09-26T15:01:10.030Z,22.20
2018-09-26T15:03:38.566Z,22.50
2018-09-26T15:06:07.164Z,22.30
2018-09-26T15:08:35.676Z,21.30
2018-09-26T15:11:04.229Z,20.90
2018-09-26T15:13:32.750Z,20.10
2018-09-26T15:16:01.278Z,19.60
2018-09-26T15:18:29.830Z,19.40
2018-09-26T15:20:58.380Z,19.40
2018-09-26T15:23:26.989Z,19.10
2018-09-26T15:25:55.537Z,19.00
2018-09-26T15:28:24.082Z,18.90
2018-09-26T15:30:52.617Z,18.70
2018-09-26T15:33:21.120Z,18.60
2018-09-26T15:35:49.651Z,18.60
2018-09-26T15:38:18.191Z,18.20
2018-09-26T15:40:46.714Z,17.80
2018-09-26T15:43:15.238Z,17.50
2018-09-26T15:45:43.822Z,17.30
2018-09-26T15:48:12.461Z,17.00
2018-09-26T15:50:40.873Z,16.90
2018-09-26T15:53:09.462Z,16.80
2018-09-26T15:55:38.005Z,16.60
2018-09-26T15:58:06.596Z,16.40
2018-09-26T16:00:35.095Z,16.30
2018-09-26T16:03:04.047Z,16.30
2018-09-26T16:05:32.394Z,16.20
2018-09-26T16:08:00.837Z,16.10
2018-09-26T16:10:29.250Z,16.00
2018-09-26T16:12:57.687Z,15.90
2018-09-26T16:15:26.098Z,15.80
2018-09-26T16:17:54.560Z,15.70
2018-09-26T16:20:23.017Z,15.70
2018-09-26T16:22:51.440Z,15.60
2018-09-26T16:25:19.908Z,15.40
2018-09-26T16:27:48.298Z,15.40
2018-09-26T16:30:16.765Z,15.30
2018-09-26T16:32:45.158Z,15.20
2018-09-26T16:35:13.572Z,15.00
2018-09-26T16:37:42.038Z,14.90
2018-09-26T16:40:10.495Z,14.90
2018-09-26T16:42:38.897Z,14.80
2018-09-26T16:45:08.023Z,14.80
2018-09-26T16:47:36.466Z,14.60
2018-09-26T16:50:05.155Z,14.60
2018-09-26T16:52:33.549Z,14.40
2018-09-26T16:55:01.964Z,14.30
2018-09-26T16:57:30.460Z,14.30
2018-09-26T16:59:58.887Z,14.20
2018-09-26T17:02:27.335Z,14.10
2018-09-26T17:04:55.745Z,13.90
2018-09-26T17:07:24.174Z,13.70
2018-09-26T17:09:52.572Z,13.60
2018-09-26T17:12:21.099Z,13.50
2018-09-26T17:14:49.458Z,13.40
2018-09-26T17:17:17.924Z,13.30
2018-09-26T17:19:46.416Z,13.20
2018-09-26T17:22:14.931Z,13.10
2018-09-26T17:24:43.276Z,13.00
2018-09-26T17:27:11.712Z,12.90
2018-09-26T17:29:40.150Z,12.70
2018-09-26T17:32:08.628Z,12.60
2018-09-26T17:34:37.015Z,12.40
2018-09-26T17:37:05.578Z,12.40
2018-09-26T17:39:34.019Z,12.30
2018-09-26T17:42:02.428Z,12.10
2018-09-26T17:44:30.854Z,12.00
2018-09-26T17:46:59.253Z,11.90
2018-09-26T17:49:27.707Z,11.80
2018-09-26T17:51:56.143Z,11.80
2018-09-26T17:54:24.951Z,11.70
2018-09-26T17:56:53.258Z,11.60
2018-09-26T17:59:21.690Z,11.50
2018-09-26T18:01:50.097Z,11.50
2018-09-26T18:04:18.616Z,11.30
2018-09-26T18:06:46.972Z,11.30
2018-09-26T18:09:16.087Z,11.20
2018-09-26T18:11:44.497Z,11.20
2018-09-26T18:14:12.938Z,11.10
2018-09-26T18:16:41.413Z,11.00
2018-09-26T18:19:10.225Z,11.00
2018-09-26T18:21:38.678Z,10.90
2018-09-26T18:24:07.251Z,10.80
2018-09-26T18:26:35.697Z,10.70
2018-09-26T18:29:04.178Z,10.70
2018-09-26T18:31:32.589Z,10.60
2018-09-26T18:34:01.031Z,10.60
2018-09-26T18:36:29.473Z,10.50
2018-09-26T18:38:58.023Z,10.50
2018-09-26T18:41:26.410Z,10.40
2018-09-26T18:43:54.909Z,10.30
2018-09-26T18:46:23.325Z,10.20
2018-09-26T18:48:51.750Z,10.10
2018-09-26T18:51:20.178Z,10.00
2018-09-26T18:53:48.605Z,10.00
2018-09-26T18:56:17.046Z,9.90
2018-09-26T18:58:45.836Z,9.90
2018-09-26T19:01:14.241Z,9.90
2018-09-26T19:03:42.777Z,9.80
2018-09-26T19:06:11.217Z,9.80
2018-09-26T19:08:40.674Z,9.70
2018-09-26T19:11:09.137Z,9.70
2018-09-26T19:13:37.644Z,9.60
2018-09-26T19:16:06.354Z,9.50
2018-09-26T19:18:35.518Z,9.50
2018-09-26T19:21:04.089Z,9.50
2018-09-26T19:23:32.478Z,9.40
2018-09-26T19:26:00.914Z,9.40
2018-09-26T19:28:29.326Z,9.40
2018-09-26T19:30:57.772Z,9.40
2018-09-26T19:33:26.222Z,9.40
2018-09-26T19:35:54.658Z,9.30
2018-09-26T19:38:23.061Z,9.20
2018-09-26T19:40:51.526Z,9.10
2018-09-26T19:43:19.934Z,9.10
2018-09-26T19:45:48.371Z,9.00
2018-09-26T19:48:16.826Z,9.00
2018-09-26T19:50:45.261Z,9.00
2018-09-26T19:53:13.699Z,8.90
2018-09-26T19:55:42.154Z,8.90
2018-09-26T19:58:10.598Z,8.80
2018-09-26T20:00:39.062Z,8.80
2018-09-26T20:03:07.482Z,8.80
2018-09-26T20:05:35.942Z,8.80
2018-09-26T20:08:04.435Z,8.90
2018-09-26T20:10:32.850Z,8.80
2018-09-26T20:13:01.278Z,8.80
2018-09-26T20:15:29.745Z,8.80
2018-09-26T20:17:58.550Z,8.80
2018-09-26T20:20:27.020Z,8.70
2018-09-26T20:22:55.494Z,8.60
2018-09-26T20:25:23.902Z,8.50
2018-09-26T20:27:52.331Z,8.50
2018-09-26T20:30:20.769Z,8.50
2018-09-26T20:32:49.287Z,8.40
2018-09-26T20:35:17.740Z,8.40
2018-09-26T20:37:46.167Z,8.30
2018-09-26T20:40:14.628Z,8.30
2018-09-26T20:42:43.057Z,8.20
2018-09-26T20:45:11.505Z,8.30
2018-09-26T20:47:39.933Z,8.30
2018-09-26T20:50:08.475Z,8.30
2018-09-26T20:52:36.870Z,8.20
2018-09-26T20:55:05.332Z,8.20
2018-09-26T20:57:33.775Z,8.10
2018-09-26T21:00:02.191Z,8.10
2018-09-26T21:02:30.645Z,8.10
2018-09-26T21:04:59.066Z,8.00
2018-09-26T21:07:27.583Z,7.90
2018-09-26T21:09:56.070Z,7.90
2018-09-26T21:12:24.574Z,7.90
2018-09-26T21:14:53.039Z,7.80
2018-09-26T21:17:21.555Z,7.80
2018-09-26T21:19:49.990Z,7.90
2018-09-26T21:22:18.425Z,7.90
2018-09-26T21:24:46.850Z,7.80
2018-09-26T21:27:15.285Z,7.80
2018-09-26T21:29:43.698Z,7.60
2018-09-26T21:32:12.127Z,7.60
2018-09-26T21:34:40.534Z,7.60
2018-09-26T21:37:09.017Z,7.60
2018-09-26T21:39:37.423Z,7.60
2018-09-26T21:42:05.858Z,7.60
2018-09-26T21:44:34.274Z,7.50
2018-09-26T21:47:02.734Z,7.50
2018-09-26T21:49:31.137Z,7.50
2018-09-26T21:51:59.610Z,7.40
2018-09-26T21:54:28.020Z,7.40
2018-09-26T21:56:56.458Z,7.40
2018-09-26T21:59:24.954Z,7.40
2018-09-26T22:01:53.394Z,7.40
2018-09-26T22:04:21.813Z,7.40
2018-09-26T22:06:50.286Z,7.40
2018-09-26T22:09:18.709Z,7.40
2018-09-26T22:11:47.149Z,7.30
2018-09-26T22:14:15.623Z,7.30
2018-09-26T22:16:44.077Z,7.20
2018-09-26T22:19:12.504Z,7.20
2018-09-26T22:21:40.957Z,7.10
2018-09-26T22:24:09.361Z,7.10
2018-09-26T22:26:37.781Z,7.10
2018-09-26T22:29:07.342Z,7.10
2018-09-26T22:31:35.742Z,7.10
2018-09-26T22:34:04.190Z,7.10
2018-09-26T22:36:32.631Z,7.10
2018-09-26T22:39:01.074Z,7.10
2018-09-26T22:41:29.505Z,7.00
2018-09-26T22:43:57.949Z,7.00
2018-09-26T22:46:26.382Z,7.00
2018-09-26T22:48:54.835Z,6.90
2018-09-26T22:51:23.314Z,6.90
2018-09-26T22:53:51.758Z,6.80
2018-09-26T22:56:20.162Z,6.80
2018-09-26T22:58:48.659Z,6.70
2018-09-26T23:01:17.130Z,6.60
2018-09-26T23:03:45.618Z,6.60
2018-09-26T23:06:14.043Z,6.70
2018-09-26T23:08:42.523Z,6.70
2018-09-26T23:11:10.938Z,6.70
2018-09-26T23:13:39.446Z,6.70
2018-09-26T23:16:07.850Z,6.70
2018-09-26T23:18:36.318Z,6.70
2018-09-26T23:21:04.753Z,6.70
2018-09-26T23:23:33.199Z,6.70
2018-09-26T23:26:01.630Z,6.70
2018-09-26T23:28:30.127Z,6.60
2018-09-26T23:30:58.550Z,6.60
2018-09-26T23:33:27.003Z,6.70
2018-09-26T23:35:55.438Z,6.60
2018-09-26T23:38:23.890Z,6.50
2018-09-26T23:40:52.376Z,6.50
2018-09-26T23:43:20.832Z,6.40
2018-09-26T23:45:49.361Z,6.40
2018-09-26T23:48:17.811Z,6.40
2018-09-26T23:50:46.272Z,6.40
2018-09-26T23:53:14.718Z,6.50
2018-09-26T23:55:43.155Z,6.50
2018-09-26T23:58:11.582Z,6.50
